Time;durP1;ratioP1;P1;durP2;ratioP2;P2;SDS_P1;SDS_P2;PMS_P1;PMS_P2;Temp;Humidity;BMP_temperature;BMP_pressure;BME280_temperature;BME280_humidity;BME280_pressure;Samples;Min_cycle;Max_cycle;Signal;HPM_P1;HPM_P2
2023/11/28 00:01:05;;;;;;;1.95;1.58;;;2.30;99.90;;;;;;6254758;22;20028;-80
2023/11/28 00:03:54;;;;;;;1.55;1.45;;;2.30;99.90;;;;;;6274687;22;20038;-80
2023/11/28 00:06:44;;;;;;;2.17;1.55;;;2.30;99.90;;;;;;6274022;22;20027;-81
2023/11/28 00:09:31;;;;;;;1.23;1.20;;;2.20;99.90;;;;;;6273509;22;20027;-80
2023/11/28 00:12:19;;;;;;;2.13;1.50;;;2.30;99.90;;;;;;6275624;22;20362;-79
2023/11/28 00:15:06;;;;;;;2.53;1.95;;;2.30;99.90;;;;;;6276642;22;20126;-81
2023/11/28 00:17:56;;;;;;;3.78;1.60;;;2.30;99.90;;;;;;6273595;22;20028;-82
2023/11/28 00:20:46;;;;;;;1.85;1.60;;;2.30;99.90;;;;;;6276096;22;20027;-82
2023/11/28 00:23:33;;;;;;;1.50;1.40;;;2.30;99.90;;;;;;6272186;22;20027;-81
2023/11/28 00:26:20;;;;;;;2.65;1.40;;;2.40;99.90;;;;;;6274500;22;20024;-80
2023/11/28 00:29:08;;;;;;;3.33;1.20;;;2.40;99.90;;;;;;6272510;22;20318;-81
2023/11/28 00:31:55;;;;;;;3.08;1.50;;;2.40;99.90;;;;;;6275217;22;20019;-81
2023/11/28 00:34:42;;;;;;;2.05;1.48;;;2.40;99.90;;;;;;6271832;22;20240;-80
2023/11/28 00:37:29;;;;;;;2.20;1.55;;;2.40;99.90;;;;;;6273394;22;20294;-80
2023/11/28 00:40:19;;;;;;;1.63;1.52;;;2.40;99.90;;;;;;6273390;22;20085;-81
2023/11/28 00:43:07;;;;;;;2.63;1.85;;;2.40;99.90;;;;;;6272669;22;20028;-82
2023/11/28 00:45:55;;;;;;;1.70;1.60;;;2.40;99.90;;;;;;6274568;22;20023;-80
2023/11/28 00:48:46;;;;;;;2.00;1.90;;;2.40;99.90;;;;;;6275935;22;20150;-79
2023/11/28 00:51:34;;;;;;;1.95;1.80;;;2.40;99.90;;;;;;6276392;22;20185;-79
2023/11/28 00:54:21;;;;;;;2.58;1.80;;;2.50;99.90;;;;;;6279334;22;20059;-81
2023/11/28 00:57:09;;;;;;;1.92;1.73;;;2.50;99.90;;;;;;6274909;22;20063;-81
2023/11/28 00:59:56;;;;;;;1.90;1.80;;;2.50;99.90;;;;;;6271091;22;20310;-81
2023/11/28 01:02:43;;;;;;;1.98;1.80;;;2.50;99.90;;;;;;6273656;22;20124;-81
2023/11/28 01:05:31;;;;;;;2.15;1.73;;;2.50;99.90;;;;;;6275470;22;20020;-81
2023/11/28 01:08:18;;;;;;;1.77;1.67;;;2.50;99.90;;;;;;6273667;22;20023;-80
2023/11/28 01:11:10;;;;;;;1.73;1.40;;;2.50;99.90;;;;;;6275039;22;20313;-82
2023/11/28 01:13:58;;;;;;;1.92;1.83;;;2.50;99.90;;;;;;6273205;22;20019;-81
2023/11/28 01:16:46;;;;;;;2.20;2.00;;;2.50;99.90;;;;;;6275096;22;20077;-82
2023/11/28 01:19:34;;;;;;;2.20;2.00;;;2.50;99.90;;;;;;6272666;22;20051;-81
2023/11/28 01:22:21;;;;;;;1.90;1.80;;;2.60;99.90;;;;;;6272753;22;20034;-81
2023/11/28 01:25:11;;;;;;;2.28;2.08;;;2.60;99.90;;;;;;6273219;22;20349;-81
2023/11/28 01:27:58;;;;;;;2.53;1.70;;;2.60;99.90;;;;;;6276161;22;20051;-79
2023/11/28 01:30:45;;;;;;;1.67;1.58;;;2.60;99.90;;;;;;6274313;22;20023;-79
2023/11/28 01:33:35;;;;;;;2.05;1.80;;;2.60;99.90;;;;;;6276506;22;20395;-81
2023/11/28 01:36:23;;;;;;;1.70;1.60;;;2.60;99.90;;;;;;6275090;22;20038;-81
2023/11/28 01:39:12;;;;;;;2.67;1.80;;;2.60;99.90;;;;;;6275691;22;20358;-82
2023/11/28 01:42:01;;;;;;;2.45;1.70;;;2.60;99.90;;;;;;6275059;22;20035;-82
2023/11/28 01:44:48;;;;;;;2.63;1.50;;;2.70;99.90;;;;;;6275869;22;20318;-81
2023/11/28 01:47:36;;;;;;;2.13;1.83;;;2.60;99.90;;;;;;6275394;22;20032;-81
2023/11/28 01:50:23;;;;;;;2.20;2.03;;;2.60;99.90;;;;;;6274091;22;20016;-81
2023/11/28 01:53:12;;;;;;;2.55;1.80;;;2.60;99.90;;;;;;6272360;22;20027;-81
2023/11/28 01:56:00;;;;;;;2.05;1.80;;;2.60;99.90;;;;;;6274230;22;20035;-81
2023/11/28 01:58:48;;;;;;;1.73;1.63;;;2.60;99.90;;;;;;6273616;22;20035;-81
2023/11/28 02:01:36;;;;;;;2.65;2.30;;;2.60;99.90;;;;;;6271806;22;20034;-82
2023/11/28 02:04:23;;;;;;;1.83;1.70;;;2.70;99.90;;;;;;6273989;22;20023;-81
2023/11/28 02:07:14;;;;;;;1.98;1.73;;;2.70;99.90;;;;;;6273925;22;20016;-80
2023/11/28 02:10:01;;;;;;;1.83;1.73;;;2.70;99.90;;;;;;6276148;22;20038;-80
2023/11/28 02:12:51;;;;;;;2.35;2.15;;;2.70;99.90;;;;;;6274850;22;20086;-81
2023/11/28 02:15:40;;;;;;;2.40;2.20;;;2.70;99.90;;;;;;6272792;22;20027;-81
2023/11/28 02:18:27;;;;;;;3.15;2.08;;;2.80;99.90;;;;;;6274777;22;20024;-79
2023/11/28 02:21:15;;;;;;;1.90;1.70;;;2.80;99.90;;;;;;6276794;22;20023;-81
2023/11/28 02:24:04;;;;;;;2.13;1.95;;;2.80;99.90;;;;;;6273757;22;20038;-81
2023/11/28 02:26:51;;;;;;;1.90;1.80;;;2.90;99.90;;;;;;6274722;22;20024;-81
2023/11/28 02:29:41;;;;;;;1.95;1.77;;;2.90;99.90;;;;;;6274515;22;20028;-81
2023/11/28 02:32:28;;;;;;;3.88;1.55;;;3.00;99.90;;;;;;6271687;22;20394;-81
2023/11/28 02:35:16;;;;;;;2.17;1.80;;;3.00;99.90;;;;;;6274706;22;20023;-82
2023/11/28 02:38:09;;;;;;;1.98;1.88;;;3.00;99.90;;;;;;6276366;22;20043;-82
2023/11/28 02:40:57;;;;;;;3.60;1.92;;;3.10;99.90;;;;;;6272409;22;20031;-81
2023/11/28 02:43:49;;;;;;;2.63;1.83;;;3.10;99.90;;;;;;6275237;22;20097;-81
2023/11/28 02:46:36;;;;;;;3.20;2.13;;;3.10;99.90;;;;;;6274386;22;20422;-81
2023/11/28 02:49:23;;;;;;;2.88;1.73;;;3.10;99.90;;;;;;6274520;22;20023;-81
2023/11/28 02:52:10;;;;;;;2.58;1.70;;;3.10;99.90;;;;;;6277371;22;20023;-81
2023/11/28 02:54:58;;;;;;;7.47;3.97;;;3.20;99.90;;;;;;6279406;22;20384;-81
2023/11/28 02:57:46;;;;;;;3.10;2.33;;;3.20;99.90;;;;;;6280729;22;20062;-82
2023/11/28 03:00:34;;;;;;;4.60;3.38;;;3.10;99.90;;;;;;6280498;22;20034;-81
2023/11/28 03:03:23;;;;;;;9.88;5.22;;;3.20;99.90;;;;;;6281441;22;20023;-81
2023/11/28 03:06:10;;;;;;;2.20;2.00;;;3.10;99.90;;;;;;6282615;22;20031;-82
2023/11/28 03:09:00;;;;;;;2.08;1.92;;;3.20;99.90;;;;;;6283690;22;20023;-81
2023/11/28 03:11:50;;;;;;;2.30;2.10;;;3.20;99.90;;;;;;6287759;22;20142;-82
2023/11/28 03:14:37;;;;;;;2.45;2.10;;;3.20;99.90;;;;;;6291716;22;20031;-82
2023/11/28 03:17:25;;;;;;;2.17;1.98;;;3.20;99.90;;;;;;6289068;22;20047;-80
2023/11/28 03:20:17;;;;;;;2.67;2.10;;;3.20;99.90;;;;;;6294957;22;20085;-80
2023/11/28 03:23:04;;;;;;;2.25;2.08;;;3.10;99.90;;;;;;6272920;22;20023;-81
2023/11/28 03:25:52;;;;;;;4.40;2.30;;;3.10;99.90;;;;;;6290608;22;20023;-82
2023/11/28 03:28:41;;;;;;;4.13;2.30;;;3.10;99.90;;;;;;6292749;22;20075;-82
2023/11/28 03:31:29;;;;;;;3.53;2.65;;;3.10;99.90;;;;;;6291182;22;20020;-81
2023/11/28 03:34:16;;;;;;;3.75;2.78;;;3.10;99.90;;;;;;6287375;22;20294;-81
2023/11/28 03:37:05;;;;;;;2.78;2.50;;;3.10;99.90;;;;;;6281537;22;20029;-80
2023/11/28 03:39:53;;;;;;;3.03;2.30;;;3.10;99.90;;;;;;6278445;22;20030;-79
2023/11/28 03:42:41;;;;;;;3.00;2.80;;;3.10;99.90;;;;;;6278555;22;20027;-81
2023/11/28 03:45:30;;;;;;;2.85;2.65;;;3.10;99.90;;;;;;6278727;22;20023;-81
2023/11/28 03:48:18;;;;;;;2.25;2.05;;;3.10;99.90;;;;;;6277383;22;20026;-80
2023/11/28 03:51:05;;;;;;;2.50;2.28;;;3.10;99.90;;;;;;6278021;22;20279;-81
2023/11/28 03:53:52;;;;;;;2.38;2.17;;;3.10;99.90;;;;;;6292277;22;20023;-81
2023/11/28 03:56:43;;;;;;;2.53;2.33;;;3.10;99.90;;;;;;6292917;22;20039;-82
2023/11/28 03:59:30;;;;;;;3.15;2.50;;;3.10;99.90;;;;;;6291220;22;20036;-81
2023/11/28 04:02:17;;;;;;;4.22;2.75;;;3.10;99.90;;;;;;6279976;22;20084;-80
2023/11/28 04:05:08;;;;;;;3.25;2.55;;;3.10;99.90;;;;;;6280518;22;20019;-80
2023/11/28 04:07:56;;;;;;;2.93;2.17;;;3.10;99.90;;;;;;6275901;22;20020;-81
2023/11/28 04:10:46;;;;;;;4.00;3.08;;;3.00;99.90;;;;;;6276717;22;20026;-81
2023/11/28 04:13:33;;;;;;;2.65;2.25;;;3.10;99.90;;;;;;6274573;22;20051;-81
2023/11/28 04:16:20;;;;;;;3.80;2.10;;;3.10;99.90;;;;;;6274252;22;20039;-81
2023/11/28 04:19:10;;;;;;;2.30;2.10;;;3.10;99.90;;;;;;6273006;22;20027;-80
2023/11/28 04:21:57;;;;;;;3.83;2.03;;;3.10;99.90;;;;;;6275884;22;20418;-79
2023/11/28 04:24:47;;;;;;;2.42;2.22;;;3.20;99.90;;;;;;6275839;22;20023;-81
2023/11/28 04:27:34;;;;;;;3.13;2.10;;;3.10;99.90;;;;;;6274527;22;20425;-81
2023/11/28 04:30:22;;;;;;;4.35;1.60;;;3.20;99.90;;;;;;6269715;22;20377;-81
2023/11/28 04:33:09;;;;;;;1.85;1.75;;;3.20;99.90;;;;;;6276233;22;20162;-81
2023/11/28 04:35:56;;;;;;;2.08;1.88;;;3.20;99.90;;;;;;6275598;22;20024;-81
2023/11/28 04:38:44;;;;;;;1.58;1.48;;;3.20;99.90;;;;;;6273138;22;20023;-81
2023/11/28 04:41:31;;;;;;;2.60;1.70;;;3.20;99.90;;;;;;6276012;22;20064;-81
2023/11/28 04:44:18;;;;;;;1.60;1.40;;;3.20;99.90;;;;;;6273334;22;20028;-80
2023/11/28 04:47:06;;;;;;;1.42;1.20;;;3.30;99.90;;;;;;6275872;22;20020;-82
2023/11/28 04:49:53;;;;;;;1.08;0.95;;;3.20;99.90;;;;;;6273716;22;20034;-81
2023/11/28 04:52:43;;;;;;;0.77;0.77;;;3.30;99.90;;;;;;6276118;22;20036;-82
2023/11/28 04:55:30;;;;;;;0.90;0.90;;;3.30;99.90;;;;;;6272252;22;20174;-81
2023/11/28 04:58:20;;;;;;;1.98;0.90;;;3.30;99.90;;;;;;6275149;22;20023;-81
2023/11/28 05:01:10;;;;;;;0.93;0.93;;;3.20;99.90;;;;;;6275792;22;20422;-82
2023/11/28 05:03:58;;;;;;;1.00;1.00;;;3.20;99.90;;;;;;6274483;22;20024;-82
2023/11/28 05:06:45;;;;;;;1.10;1.00;;;3.20;99.90;;;;;;6275087;22;20115;-82
2023/11/28 05:09:33;;;;;;;2.67;1.10;;;3.20;99.90;;;;;;6275360;22;20058;-80
2023/11/28 05:12:20;;;;;;;1.58;0.95;;;3.20;99.90;;;;;;6277132;22;20019;-80
2023/11/28 05:15:08;;;;;;;0.93;0.93;;;3.20;99.90;;;;;;6276730;22;20303;-82
2023/11/28 05:17:55;;;;;;;1.10;1.00;;;3.20;99.90;;;;;;6275670;22;20035;-81
2023/11/28 05:20:42;;;;;;;1.85;1.60;;;3.20;99.90;;;;;;6273466;22;20034;-82
2023/11/28 05:23:30;;;;;;;2.72;1.50;;;3.20;99.90;;;;;;6276601;22;20036;-82
2023/11/28 05:26:17;;;;;;;1.20;1.10;;;3.20;99.90;;;;;;6272891;22;20033;-82
2023/11/28 05:29:05;;;;;;;1.58;1.20;;;3.20;99.90;;;;;;6273935;22;20028;-82
2023/11/28 05:31:56;;;;;;;2.80;1.10;;;3.20;99.90;;;;;;6275746;22;20437;-81
2023/11/28 05:34:44;;;;;;;1.60;1.20;;;3.20;99.90;;;;;;6275634;22;20109;-81
2023/11/28 05:37:33;;;;;;;0.90;0.90;;;3.10;99.90;;;;;;6276899;22;20020;-81
2023/11/28 05:40:21;;;;;;;2.85;1.23;;;3.10;99.90;;;;;;6273695;22;20038;-81
2023/11/28 05:43:11;;;;;;;1.15;1.05;;;3.10;99.90;;;;;;6275244;22;20516;-80
2023/11/28 05:45:59;;;;;;;1.00;1.00;;;3.10;99.90;;;;;;6273154;22;20027;-81
2023/11/28 05:48:46;;;;;;;1.60;1.30;;;3.10;99.90;;;;;;6274833;22;20028;-82
2023/11/28 05:51:34;;;;;;;3.05;1.10;;;3.10;99.90;;;;;;6278475;22;20062;-83
2023/11/28 05:54:21;;;;;;;1.65;1.30;;;3.10;99.90;;;;;;6277283;22;20024;-82
2023/11/28 05:57:10;;;;;;;2.17;1.35;;;3.10;99.90;;;;;;6273792;22;20116;-85
2023/11/28 05:59:58;;;;;;;1.13;1.13;;;3.20;99.90;;;;;;6275175;22;20059;-85
2023/11/28 06:02:45;;;;;;;1.52;1.33;;;3.20;99.90;;;;;;6275435;22;20332;-80
2023/11/28 06:05:33;;;;;;;2.90;1.27;;;3.20;99.90;;;;;;6273058;22;20317;-82
2023/11/28 06:08:25;;;;;;;1.70;1.40;;;3.20;99.90;;;;;;6271730;22;20059;-84
2023/11/28 06:11:13;;;;;;;3.33;2.10;;;3.20;99.90;;;;;;6274034;22;20098;-82
2023/11/28 06:14:02;;;;;;;2.40;2.20;;;3.20;99.90;;;;;;6274566;22;20222;-83
2023/11/28 06:16:50;;;;;;;3.53;2.13;;;3.10;99.90;;;;;;6274685;22;20024;-83
2023/11/28 06:19:38;;;;;;;2.70;2.42;;;3.10;99.90;;;;;;6277194;22;20026;-82
2023/11/28 06:22:25;;;;;;;2.80;2.55;;;3.10;99.90;;;;;;6278624;22;20102;-82
2023/11/28 06:25:15;;;;;;;2.92;2.60;;;3.10;99.90;;;;;;6276317;22;20020;-83
2023/11/28 06:28:03;;;;;;;3.00;2.40;;;3.10;99.90;;;;;;6281465;22;20023;-81
2023/11/28 06:30:50;;;;;;;2.40;2.20;;;3.00;99.90;;;;;;6282258;22;20318;-83
2023/11/28 06:33:37;;;;;;;2.50;2.22;;;3.00;99.90;;;;;;6275699;22;20047;-82
2023/11/28 06:36:25;;;;;;;2.28;2.00;;;2.80;99.90;;;;;;6277115;22;20020;-80
2023/11/28 06:39:14;;;;;;;2.60;2.40;;;2.80;99.90;;;;;;6277803;22;20028;-83
2023/11/28 06:42:02;;;;;;;2.45;2.20;;;2.70;99.90;;;;;;6275362;22;20027;-82
2023/11/28 06:44:50;;;;;;;2.40;2.20;;;2.70;99.90;;;;;;6274977;22;20536;-82
2023/11/28 06:47:40;;;;;;;2.45;2.25;;;2.60;99.90;;;;;;6273559;22;20046;-81
2023/11/28 06:50:27;;;;;;;3.42;2.40;;;2.50;99.90;;;;;;6273366;22;20031;-82
2023/11/28 06:53:16;;;;;;;4.47;2.40;;;2.50;99.90;;;;;;6273365;22;20077;-81
2023/11/28 06:56:04;;;;;;;2.22;2.03;;;2.50;99.90;;;;;;6275127;22;20110;-81
2023/11/28 06:58:51;;;;;;;2.67;2.20;;;2.40;99.90;;;;;;6274969;22;20684;-82
2023/11/28 07:01:40;;;;;;;2.75;2.25;;;2.40;99.90;;;;;;6273392;22;20077;-81
2023/11/28 07:04:28;;;;;;;2.00;1.80;;;2.40;99.90;;;;;;6275769;22;20666;-82
2023/11/28 07:07:17;;;;;;;3.03;2.03;;;2.30;99.90;;;;;;6273267;22;20024;-80
2023/11/28 07:10:06;;;;;;;2.20;2.10;;;2.20;99.90;;;;;;6275321;22;20042;-81
2023/11/28 07:12:58;;;;;;;3.08;2.30;;;2.20;99.90;;;;;;6274394;22;20019;-81
2023/11/28 07:15:46;;;;;;;1.67;1.58;;;2.10;99.90;;;;;;6273163;22;20102;-82
2023/11/28 07:18:35;;;;;;;2.40;2.20;;;2.10;99.90;;;;;;6275258;22;20027;-81
2023/11/28 07:21:24;;;;;;;2.25;2.10;;;2.10;99.90;;;;;;6277766;22;20028;-82
2023/11/28 07:24:13;;;;;;;2.00;1.90;;;2.00;99.90;;;;;;6277627;22;20027;-82
2023/11/28 07:27:01;;;;;;;2.38;2.00;;;1.90;99.90;;;;;;6272810;22;20310;-81
2023/11/28 07:29:50;;;;;;;2.05;1.90;;;1.80;99.90;;;;;;6275594;22;20020;-82
2023/11/28 07:32:38;;;;;;;2.10;2.00;;;1.70;99.90;;;;;;6275220;22;20026;-83
2023/11/28 07:35:25;;;;;;;3.05;2.00;;;1.60;99.90;;;;;;6274084;22;20290;-81
2023/11/28 07:38:13;;;;;;;2.78;1.98;;;1.60;99.90;;;;;;6274087;22;20122;-82
2023/11/28 07:41:02;;;;;;;2.42;1.80;;;1.50;99.90;;;;;;6275512;22;20417;-81
2023/11/28 07:43:50;;;;;;;1.88;1.70;;;1.40;99.90;;;;;;6277056;22;20095;-82
2023/11/28 07:46:38;;;;;;;1.92;1.70;;;1.30;99.90;;;;;;6274986;22;20051;-82
2023/11/28 07:49:25;;;;;;;4.63;1.90;;;1.30;99.90;;;;;;6276998;22;20283;-81
2023/11/28 07:52:12;;;;;;;1.92;1.83;;;1.20;99.90;;;;;;6274612;22;20318;-82
2023/11/28 07:55:06;;;;;;;1.90;1.80;;;1.10;99.90;;;;;;6276706;22;20077;-82
2023/11/28 07:57:54;;;;;;;3.40;1.90;;;1.10;99.90;;;;;;6275947;22;20150;-81
2023/11/28 08:00:41;;;;;;;2.00;1.90;;;1.00;99.90;;;;;;6278835;22;20027;-82
2023/11/28 08:03:29;;;;;;;10.68;2.88;;;1.00;99.90;;;;;;6277910;22;20031;-82
2023/11/28 08:06:18;;;;;;;2.72;2.53;;;0.90;99.90;;;;;;6275377;22;20020;-82
2023/11/28 08:09:07;;;;;;;2.67;2.47;;;0.90;99.90;;;;;;6275741;22;20020;-82
2023/11/28 08:11:55;;;;;;;3.95;3.03;;;0.90;99.90;;;;;;6277138;22;20426;-82
2023/11/28 08:14:42;;;;;;;2.92;2.58;;;0.80;99.90;;;;;;6278791;22;20031;-81
2023/11/28 08:17:35;;;;;;;3.30;3.00;;;0.80;99.90;;;;;;6283817;22;20028;-81
2023/11/28 08:20:23;;;;;;;4.03;3.60;;;0.80;99.90;;;;;;6278635;22;20024;-82
2023/11/28 08:23:11;;;;;;;3.65;3.35;;;0.80;99.90;;;;;;6277259;22;20096;-81
2023/11/28 08:25:59;;;;;;;3.53;3.22;;;0.80;99.90;;;;;;6274940;22;20051;-81
2023/11/28 08:28:46;;;;;;;3.65;3.35;;;0.80;99.90;;;;;;6276146;22;20023;-82
2023/11/28 08:31:34;;;;;;;3.80;3.50;;;0.70;99.90;;;;;;6275437;22;20075;-81
2023/11/28 08:34:21;;;;;;;3.72;3.22;;;0.70;99.90;;;;;;6277157;22;20077;-80
2023/11/28 08:37:10;;;;;;;4.45;3.72;;;0.70;99.90;;;;;;6274675;22;20028;-82
2023/11/28 08:39:58;;;;;;;4.07;3.67;;;0.60;99.90;;;;;;6276204;22;20107;-82
2023/11/28 08:42:48;;;;;;;3.50;3.20;;;0.60;99.90;;;;;;6274883;22;20437;-81
2023/11/28 08:45:36;;;;;;;3.70;3.40;;;0.60;99.90;;;;;;6277167;22;20039;-81
2023/11/28 08:48:23;;;;;;;3.03;2.75;;;0.60;99.90;;;;;;6276118;22;20414;-81
2023/11/28 08:51:17;;;;;;;3.08;2.83;;;0.60;99.90;;;;;;6274905;22;20051;-82
2023/11/28 08:54:04;;;;;;;3.20;2.90;;;0.60;99.90;;;;;;6276056;22;20020;-82
2023/11/28 08:56:55;;;;;;;2.85;2.63;;;0.60;99.90;;;;;;6275681;22;20035;-80
2023/11/28 08:59:43;;;;;;;2.65;2.45;;;0.60;99.90;;;;;;6273465;22;20106;-82
2023/11/28 09:02:33;;;;;;;2.70;2.50;;;0.50;99.90;;;;;;6273735;22;20053;-82
2023/11/28 09:05:21;;;;;;;2.55;2.30;;;0.60;99.90;;;;;;6275524;22;20085;-81
2023/11/28 09:08:08;;;;;;;2.67;2.38;;;0.60;99.90;;;;;;6274774;22;20097;-82
2023/11/28 09:10:57;;;;;;;3.95;2.25;;;0.60;99.90;;;;;;6275558;22;20027;-82
2023/11/28 09:13:45;;;;;;;2.50;2.30;;;0.70;99.90;;;;;;6275767;22;20107;-81
2023/11/28 09:16:33;;;;;;;2.80;2.60;;;0.60;99.90;;;;;;6275699;22;20404;-81
2023/11/28 09:19:21;;;;;;;3.30;2.50;;;0.70;99.90;;;;;;6274226;22;20106;-81
2023/11/28 09:22:12;;;;;;;2.40;2.20;;;0.70;99.90;;;;;;6273939;22;20035;-81
2023/11/28 09:24:59;;;;;;;2.60;2.40;;;0.70;99.90;;;;;;6275938;22;20050;-82
2023/11/28 09:27:50;;;;;;;2.25;2.13;;;0.70;99.90;;;;;;6274706;22;20026;-82
2023/11/28 09:30:37;;;;;;;2.22;2.03;;;0.70;99.90;;;;;;6274478;22;20428;-81
2023/11/28 09:33:25;;;;;;;1.88;1.77;;;0.70;99.90;;;;;;6277162;22;20085;-81
2023/11/28 09:36:12;;;;;;;2.15;1.95;;;0.70;99.90;;;;;;6278877;22;20442;-82
2023/11/28 09:39:05;;;;;;;2.10;1.80;;;0.70;99.90;;;;;;6275408;22;20086;-82
2023/11/28 09:41:52;;;;;;;;;;;0.70;99.90;;;;;;6275983;22;20024;-82
2023/11/28 09:44:45;;;;;;;4.40;2.22;;;0.70;99.90;;;;;;6273482;22;20045;-82
2023/11/28 09:47:35;;;;;;;1.95;1.85;;;0.70;99.90;;;;;;6277989;22;20028;-83
2023/11/28 09:50:27;;;;;;;1.98;1.70;;;0.70;99.90;;;;;;6277489;22;20020;-82
2023/11/28 09:53:17;;;;;;;1.73;1.63;;;0.70;99.90;;;;;;6275980;22;20314;-82
2023/11/28 09:56:07;;;;;;;2.20;2.03;;;0.70;99.90;;;;;;6275988;22;20023;-82
2023/11/28 09:58:59;;;;;;;4.20;1.80;;;0.70;99.90;;;;;;6276386;22;20319;-82
2023/11/28 10:01:47;;;;;;;2.20;2.00;;;0.70;99.90;;;;;;6273632;22;20028;-80
2023/11/28 10:04:36;;;;;;;3.05;2.38;;;0.70;99.90;;;;;;6272309;22;20081;-82
2023/11/28 10:07:35;;;;;;;2.92;2.15;;;0.70;99.90;;;;;;6274145;22;20034;-81
2023/11/28 10:10:24;;;;;;;2.40;2.20;;;0.70;99.90;;;;;;6273320;22;20181;-81
2023/11/28 10:13:12;;;;;;;2.30;1.90;;;0.70;99.90;;;;;;6274497;22;20131;-81
2023/11/28 10:16:01;;;;;;;3.50;2.20;;;0.70;99.90;;;;;;6274768;22;20023;-78
2023/11/28 10:18:48;;;;;;;2.88;2.42;;;0.70;99.90;;;;;;6277864;22;20030;-80
2023/11/28 10:21:38;;;;;;;2.70;2.50;;;0.60;99.90;;;;;;6276304;22;20033;-81
2023/11/28 10:24:27;;;;;;;5.85;2.63;;;0.60;99.90;;;;;;6273654;22;20149;-81
2023/11/28 10:27:19;;;;;;;3.05;2.80;;;0.60;99.90;;;;;;6273434;22;20020;-81
2023/11/28 10:30:13;;;;;;;3.53;3.22;;;0.60;99.90;;;;;;6275642;22;20023;-81
2023/11/28 10:33:03;;;;;;;3.38;3.08;;;0.60;99.90;;;;;;6277020;22;20024;-81
2023/11/28 10:35:50;;;;;;;3.42;2.67;;;0.60;99.90;;;;;;6275324;22;20094;-82
2023/11/28 10:38:39;;;;;;;4.03;3.00;;;0.60;99.90;;;;;;6273479;22;20027;-82
2023/11/28 10:41:32;;;;;;;3.38;3.08;;;0.50;99.90;;;;;;6274720;22;20126;-82
2023/11/28 10:44:23;;;;;;;3.75;3.45;;;0.60;99.90;;;;;;6276173;22;20395;-81
2023/11/28 10:47:13;;;;;;;4.45;3.80;;;0.60;99.90;;;;;;6271230;22;20099;-81
2023/11/28 10:50:01;;;;;;;5.03;4.28;;;0.50;99.90;;;;;;6275401;22;20034;-81
2023/11/28 10:52:51;;;;;;;4.55;4.05;;;0.50;99.90;;;;;;6275249;22;20016;-81
2023/11/28 10:55:51;;;;;;;7.68;4.95;;;0.50;99.90;;;;;;6273267;22;20597;-80
2023/11/28 10:58:45;;;;;;;7.32;5.10;;;0.60;99.90;;;;;;6274891;22;20113;-81
2023/11/28 11:01:33;;;;;;;6.25;5.45;;;0.60;99.90;;;;;;6273444;22;20027;-81
2023/11/28 11:04:23;;;;;;;5.68;5.13;;;0.50;99.90;;;;;;6274498;22;20027;-81
2023/11/28 11:07:14;;;;;;;6.60;5.97;;;0.40;99.90;;;;;;6276610;22;20120;-81
2023/11/28 11:10:08;;;;;;;6.28;5.68;;;0.40;99.90;;;;;;6277073;22;20034;-81
2023/11/28 11:13:12;;;;;;;7.03;6.32;;;0.40;99.90;;;;;;6276653;22;20476;-81
2023/11/28 11:30:39;;;;;;;8.27;6.88;;;0.40;99.90;;;;;;6307616;22;20037;-81
2023/11/28 11:33:27;;;;;;;7.53;6.82;;;0.40;99.90;;;;;;6338884;22;20422;-81
2023/11/28 11:36:15;;;;;;;7.35;6.50;;;0.40;99.90;;;;;;6305356;22;20031;-82
2023/11/28 11:39:20;;;;;;;7.82;7.03;;;0.40;99.90;;;;;;6321266;22;20187;-82
2023/11/28 11:42:33;;;;;;;8.77;7.93;;;0.40;99.90;;;;;;6340915;22;20102;-82
2023/11/28 11:45:21;;;;;;;13.52;7.82;;;0.40;99.90;;;;;;6347793;22;20052;-84
2023/11/28 11:48:23;;;;;;;10.95;9.43;;;0.40;99.90;;;;;;6353191;22;20010;-81
2023/11/28 11:51:10;;;;;;;11.52;9.88;;;0.40;99.90;;;;;;6333508;22;20080;-82
2023/11/28 11:54:01;;;;;;;11.27;9.18;;;0.40;99.90;;;;;;6334531;22;20030;-81
2023/11/28 11:56:48;;;;;;;11.32;9.65;;;0.40;99.90;;;;;;6339299;22;20027;-81
2023/11/28 11:59:36;;;;;;;10.30;9.15;;;0.40;99.90;;;;;;6360357;22;20031;-80
2023/11/28 12:02:40;;;;;;;11.90;10.02;;;0.40;99.90;;;;;;6357409;22;20031;-81
2023/11/28 12:05:29;;;;;;;10.25;9.00;;;0.40;99.90;;;;;;6360824;22;20320;-79
2023/11/28 12:08:18;;;;;;;10.40;9.15;;;0.40;99.90;;;;;;6355580;22;20026;-82
2023/11/28 12:11:12;;;;;;;12.65;10.25;;;0.30;99.90;;;;;;6358540;22;20056;-84
2023/11/28 12:14:00;;;;;;;12.68;10.38;;;0.30;99.90;;;;;;6363561;22;20027;-80
2023/11/28 12:16:48;;;;;;;11.10;9.93;;;0.30;99.90;;;;;;6368022;22;20058;-81
2023/11/28 12:19:35;;;;;;;13.13;10.25;;;0.30;99.90;;;;;;6339648;22;20334;-81
2023/11/28 12:22:23;;;;;;;11.55;10.35;;;0.30;99.90;;;;;;6357326;22;20027;-80
2023/11/28 12:25:23;;;;;;;10.88;9.38;;;0.30;99.90;;;;;;6332631;22;20045;-81
2023/11/28 12:28:13;;;;;;;10.98;9.48;;;0.40;99.90;;;;;;6354254;22;20080;-81
2023/11/28 12:31:00;;;;;;;10.77;9.18;;;0.40;99.90;;;;;;6351109;22;20421;-80
2023/11/28 12:33:48;;;;;;;9.23;8.18;;;0.40;99.90;;;;;;6350007;22;20023;-80
2023/11/28 12:36:36;;;;;;;9.18;7.75;;;0.40;99.90;;;;;;6301366;22;20103;-82
2023/11/28 12:39:26;;;;;;;11.02;7.40;;;0.40;99.90;;;;;;6297695;22;20020;-81
2023/11/28 12:42:17;;;;;;;9.00;7.85;;;0.30;99.90;;;;;;6313854;22;20019;-82
2023/11/28 12:45:07;;;;;;;10.02;7.40;;;0.30;99.90;;;;;;6286415;22;20019;-80
2023/11/28 12:47:58;;;;;;;10.13;8.63;;;0.30;99.90;;;;;;6307338;22;20082;-81
2023/11/28 12:50:46;;;;;;;9.00;8.10;;;0.30;99.90;;;;;;6308953;22;20034;-81
2023/11/28 12:53:36;;;;;;;8.80;7.90;;;0.30;99.90;;;;;;6306991;22;20306;-81
2023/11/28 12:56:32;;;;;;;11.13;7.55;;;0.30;99.90;;;;;;6303991;22;20029;-82
2023/11/28 12:59:22;;;;;;;9.02;8.00;;;0.30;99.90;;;;;;6303769;22;20035;-80
2023/11/28 13:02:09;;;;;;;10.27;7.75;;;0.30;99.90;;;;;;6302284;22;20130;-83
2023/11/28 13:04:57;;;;;;;8.48;7.68;;;0.20;99.90;;;;;;6302768;22;20036;-82
2023/11/28 13:07:45;;;;;;;9.70;8.05;;;0.20;99.90;;;;;;6303722;22;20023;-82
2023/11/28 13:10:42;;;;;;;8.52;7.63;;;0.20;99.90;;;;;;6302918;22;20076;-81
2023/11/28 13:13:30;;;;;;;7.80;7.00;;;0.30;99.90;;;;;;6305137;22;20103;-82
2023/11/28 13:16:20;;;;;;;9.40;8.18;;;0.30;99.90;;;;;;6303238;22;20464;-81
2023/11/28 13:19:07;;;;;;;7.78;6.97;;;0.20;99.90;;;;;;6282255;22;20023;-79
2023/11/28 13:21:55;;;;;;;8.40;7.50;;;0.20;99.90;;;;;;6302984;22;20130;-82
2023/11/28 13:24:42;;;;;;;9.13;7.05;;;0.20;99.90;;;;;;6302996;22;20078;-81
2023/11/28 13:27:30;;;;;;;9.48;7.20;;;0.20;99.90;;;;;;6304332;22;20023;-78
2023/11/28 13:30:20;;;;;;;8.15;7.35;;;0.20;99.90;;;;;;6282969;22;20019;-82
2023/11/28 13:33:09;;;;;;;8.48;7.60;;;0.10;99.90;;;;;;6305508;22;20023;-80
2023/11/28 13:36:00;;;;;;;8.05;7.25;;;0.10;99.90;;;;;;6271683;22;20150;-83
2023/11/28 13:38:50;;;;;;;9.18;8.15;;;0.20;99.90;;;;;;6273234;22;20095;-82
2023/11/28 13:41:37;;;;;;;9.40;8.38;;;0.10;99.90;;;;;;6273087;22;20117;-82
2023/11/28 13:44:25;;;;;;;11.50;9.20;;;0.10;99.90;;;;;;6272262;22;20284;-82
2023/11/28 13:47:15;;;;;;;10.98;9.57;;;0.00;99.90;;;;;;6271799;22;20020;-82
2023/11/28 13:50:07;;;;;;;10.88;9.48;;;0.00;99.90;;;;;;6273068;22;20034;-81
2023/11/28 13:52:56;;;;;;;11.25;8.98;;;0.00;99.90;;;;;;6274312;22;20024;-82
2023/11/28 13:55:46;;;;;;;10.50;9.25;;;0.00;99.90;;;;;;6271341;22;20027;-81
2023/11/28 13:58:37;;;;;;;10.88;9.32;;;0.00;99.90;;;;;;6273627;22;20318;-81
2023/11/28 14:01:24;;;;;;;11.15;9.13;;;0.00;99.90;;;;;;6274277;22;20085;-82
2023/11/28 14:04:16;;;;;;;11.38;9.13;;;0.00;99.90;;;;;;6274560;22;20058;-81
2023/11/28 14:07:04;;;;;;;9.55;8.15;;;0.00;99.90;;;;;;6273395;22;20119;-82
2023/11/28 14:09:52;;;;;;;10.48;9.18;;;0.00;99.90;;;;;;6272858;22;20023;-81
2023/11/28 14:12:39;;;;;;;8.88;7.97;;;0.00;99.90;;;;;;6276339;22;20397;-81
2023/11/28 14:15:27;;;;;;;9.10;7.68;;;0.00;99.90;;;;;;6274916;22;20075;-82
2023/11/28 14:18:17;;;;;;;10.18;6.93;;;-0.10;99.90;;;;;;6272365;22;20106;-81
2023/11/28 14:21:07;;;;;;;8.98;7.45;;;-0.10;99.90;;;;;;6275776;22;20325;-80
2023/11/28 14:23:58;;;;;;;7.80;7.00;;;-0.10;99.90;;;;;;6274582;22;20086;-82
2023/11/28 14:26:46;;;;;;;7.85;7.05;;;-0.10;99.90;;;;;;6272846;22;20035;-82
2023/11/28 14:29:33;;;;;;;8.60;7.47;;;-0.10;99.90;;;;;;6272038;22;20028;-83
2023/11/28 14:32:21;;;;;;;8.60;7.70;;;-0.10;99.90;;;;;;6273306;22;20023;-82
2023/11/28 14:35:10;;;;;;;9.30;8.25;;;-0.10;99.90;;;;;;6273347;22;20124;-83
2023/11/28 14:37:58;;;;;;;9.05;8.15;;;-0.10;99.90;;;;;;6277166;22;20031;-81
2023/11/28 14:40:45;;;;;;;9.57;8.52;;;-0.10;99.90;;;;;;6272771;22;20383;-81
2023/11/28 14:43:33;;;;;;;9.30;8.20;;;-0.10;99.90;;;;;;6274307;22;20023;-81
2023/11/28 14:46:20;;;;;;;10.75;8.77;;;-0.10;99.90;;;;;;6274570;22;20074;-82
2023/11/28 14:49:08;;;;;;;11.60;9.70;;;-0.10;99.90;;;;;;6274868;22;20111;-82
2023/11/28 14:51:58;;;;;;;11.48;9.65;;;-0.10;99.90;;;;;;6272654;22;20107;-82
2023/11/28 14:54:48;;;;;;;11.43;9.00;;;-0.10;99.90;;;;;;6276176;22;20158;-80
2023/11/28 14:57:35;;;;;;;10.57;9.45;;;-0.10;99.90;;;;;;6275436;22;20042;-81
2023/11/28 15:00:25;;;;;;;10.73;9.13;;;-0.10;99.90;;;;;;6276198;22;20309;-80
2023/11/28 15:03:13;;;;;;;11.68;9.65;;;-0.20;99.90;;;;;;6273233;22;20145;-81